createdAt,value
2024-04-25T00:00:38.321Z,24.07
2024-04-25T00:03:07.367Z,24.03
2024-04-25T00:05:36.072Z,25.50
2024-04-25T00:08:07.783Z,24.63
2024-04-25T00:10:37.196Z,23.83
2024-04-25T00:13:06.083Z,23.20
2024-04-25T00:15:35.135Z,24.50
2024-04-25T00:18:03.969Z,25.17
2024-04-25T00:20:32.482Z,23.77
2024-04-25T00:23:01.038Z,24.67
2024-04-25T00:25:31.537Z,24.77
2024-04-25T00:28:00.896Z,24.90
2024-04-25T00:30:29.536Z,24.17
2024-04-25T00:32:58.865Z,23.50
2024-04-25T00:35:27.470Z,23.50
2024-04-25T00:37:55.989Z,23.40
2024-04-25T00:40:24.929Z,23.20
2024-04-25T00:42:55.499Z,24.20
2024-04-25T00:45:24.039Z,25.10
2024-04-25T00:47:53.656Z,24.13
2024-04-25T00:50:23.456Z,23.87
2024-04-25T00:52:52.320Z,24.80
2024-04-25T00:55:21.023Z,24.80
2024-04-25T00:57:50.426Z,24.17
2024-04-25T01:00:23.868Z,23.90
2024-04-25T01:02:55.031Z,25.20
2024-04-25T01:05:26.195Z,25.47
2024-04-25T01:07:54.711Z,24.27
2024-04-25T01:10:23.199Z,26.30
2024-04-25T01:12:51.766Z,24.87
2024-04-25T01:15:22.329Z,24.43
2024-04-25T01:17:50.942Z,24.33
2024-04-25T01:20:19.648Z,24.30
2024-04-25T01:22:51.539Z,24.67
2024-04-25T01:25:23.042Z,25.80
2024-04-25T01:27:52.318Z,24.60
2024-04-25T01:30:21.118Z,23.87
2024-04-25T01:32:49.978Z,24.43
2024-04-25T01:35:19.587Z,23.83
2024-04-25T01:37:48.186Z,25.13
2024-04-25T01:40:18.305Z,24.43
2024-04-25T01:42:48.934Z,23.63
2024-04-25T01:45:17.409Z,22.97
2024-04-25T01:47:46.034Z,22.90
2024-04-25T01:50:14.867Z,23.93
2024-04-25T01:52:44.205Z,22.63
2024-04-25T01:55:12.780Z,22.97
2024-04-25T01:57:41.308Z,23.40
2024-04-25T02:00:14.131Z,23.20
2024-04-25T02:02:42.674Z,24.03
2024-04-25T02:05:11.315Z,22.53
2024-04-25T02:07:39.950Z,22.77
2024-04-25T02:10:09.047Z,22.50
2024-04-25T02:13:44.167Z,22.47
2024-04-25T02:16:14.639Z,22.37
2024-04-25T02:18:43.261Z,20.93
2024-04-25T02:21:28.498Z,21.27
2024-04-25T02:24:13.356Z,21.63
2024-04-25T02:26:43.955Z,20.63
2024-04-25T02:29:12.491Z,21.13
2024-04-25T02:31:43.166Z,21.93
2024-04-25T02:34:12.062Z,22.03
2024-04-25T02:36:40.672Z,22.10
2024-04-25T02:39:09.839Z,20.43
2024-04-25T02:41:38.388Z,22.20
2024-04-25T02:44:07.336Z,21.70
2024-04-25T02:46:33.938Z,22.27
2024-04-25T02:49:04.504Z,20.40
2024-04-25T02:51:32.358Z,20.60
2024-04-25T02:54:01.272Z,21.33
2024-04-25T02:56:27.945Z,20.67
2024-04-25T02:58:56.467Z,19.80
2024-04-25T03:01:22.910Z,20.30
2024-04-25T03:03:51.458Z,18.37
2024-04-25T03:06:21.221Z,17.93
2024-04-25T03:08:49.824Z,18.90
2024-04-25T03:11:16.467Z,19.13
2024-04-25T03:13:45.008Z,17.57
2024-04-25T03:16:13.563Z,19.20
2024-04-25T03:18:40.208Z,18.20
2024-04-25T03:21:09.876Z,18.67
2024-04-25T03:23:40.970Z,18.73
2024-04-25T03:26:09.687Z,19.27
2024-04-25T03:28:36.334Z,19.37
2024-04-25T03:31:05.001Z,19.57
2024-04-25T03:33:31.671Z,20.10
2024-04-25T03:36:00.280Z,18.97
2024-04-25T03:38:28.870Z,19.00
2024-04-25T03:40:59.413Z,18.03
2024-04-25T03:43:27.899Z,17.10
2024-04-25T03:45:56.372Z,16.73
2024-04-25T03:48:24.957Z,16.40
2024-04-25T03:50:53.518Z,16.47
2024-04-25T03:53:22.047Z,14.53
2024-04-25T03:55:50.769Z,15.23
2024-04-25T03:58:21.355Z,15.13
2024-04-25T04:00:49.822Z,15.50
2024-04-25T04:03:18.443Z,15.87
2024-04-25T04:05:45.034Z,16.60
2024-04-25T04:08:14.102Z,17.47
2024-04-25T04:10:44.562Z,16.07
2024-04-25T04:13:13.490Z,16.60
2024-04-25T04:15:44.084Z,15.23
2024-04-25T04:18:12.718Z,15.87
2024-04-25T04:20:44.982Z,15.47
2024-04-25T04:23:13.655Z,16.77
2024-04-25T04:25:42.295Z,14.93
2024-04-25T04:28:13.547Z,15.63
2024-04-25T04:30:46.145Z,14.27
2024-04-25T04:33:14.846Z,14.83
2024-04-25T04:35:43.494Z,14.73
2024-04-25T04:38:12.052Z,15.93
2024-04-25T04:40:40.576Z,15.73
2024-04-25T04:43:09.254Z,14.77
2024-04-25T04:45:37.897Z,15.57
2024-04-25T04:48:15.834Z,15.17
2024-04-25T04:50:48.192Z,15.90
2024-04-25T04:53:16.797Z,14.87
2024-04-25T04:55:45.387Z,14.30
2024-04-25T04:58:13.954Z,14.33
2024-04-25T05:00:42.587Z,14.13
2024-04-25T05:03:15.039Z,14.67
2024-04-25T05:05:43.742Z,14.63
2024-04-25T05:08:12.256Z,14.60
2024-04-25T05:10:40.903Z,13.27
2024-04-25T05:13:10.460Z,14.50
2024-04-25T05:15:39.113Z,13.40
2024-04-25T05:18:08.133Z,14.10
2024-04-25T05:20:38.777Z,13.43
2024-04-25T05:23:08.564Z,13.37
2024-04-25T05:25:37.212Z,13.13
2024-04-25T05:28:06.182Z,13.40
2024-04-25T05:30:35.403Z,13.10
2024-04-25T05:33:04.440Z,13.17
2024-04-25T05:35:34.726Z,13.53
2024-04-25T05:38:06.284Z,13.67
2024-04-25T05:40:35.121Z,12.10
2024-04-25T05:43:03.659Z,13.43
2024-04-25T05:45:32.258Z,14.00
2024-04-25T05:48:00.915Z,14.57
2024-04-25T05:50:29.670Z,14.90
2024-04-25T05:52:58.265Z,13.17
2024-04-25T05:55:28.934Z,12.27
2024-04-25T05:57:57.440Z,11.93
2024-04-25T06:00:25.980Z,13.43
2024-04-25T06:02:54.609Z,11.77
2024-04-25T06:05:23.319Z,11.57
2024-04-25T06:07:52.069Z,12.27
2024-04-25T06:10:22.372Z,12.73
2024-04-25T06:12:53.191Z,14.00
2024-04-25T06:15:22.155Z,12.47
2024-04-25T06:17:50.886Z,12.90
2024-04-25T06:20:21.252Z,10.87
2024-04-25T06:22:49.808Z,11.53
2024-04-25T06:25:18.594Z,11.33
2024-04-25T06:27:47.661Z,11.17
2024-04-25T06:30:18.469Z,11.57
2024-04-25T06:32:47.295Z,9.80
2024-04-25T06:35:16.186Z,10.30
2024-04-25T06:37:44.788Z,10.47
2024-04-25T06:40:13.406Z,9.57
2024-04-25T06:42:42.006Z,9.10
2024-04-25T06:45:10.585Z,9.53
2024-04-25T06:47:42.103Z,10.10
2024-04-25T06:50:10.890Z,10.00
2024-04-25T06:52:39.445Z,9.27
2024-04-25T06:55:08.894Z,9.80
2024-04-25T06:57:37.639Z,9.90
2024-04-25T07:00:07.225Z,9.67
2024-04-25T07:02:35.945Z,9.53
2024-04-25T07:05:07.060Z,9.70
2024-04-25T07:07:35.856Z,8.93
2024-04-25T07:10:04.473Z,9.07
2024-04-25T07:12:33.232Z,8.90
2024-04-25T07:15:06.068Z,8.97
2024-04-25T07:17:34.836Z,9.37
2024-04-25T07:20:03.812Z,8.77
2024-04-25T07:22:34.503Z,9.13
2024-04-25T07:25:03.033Z,9.43
2024-04-25T07:27:32.599Z,9.03
2024-04-25T07:30:01.522Z,8.50
2024-04-25T07:32:30.357Z,11.30
2024-04-25T07:34:59.116Z,10.10
2024-04-25T07:37:27.718Z,9.67
2024-04-25T07:39:58.325Z,9.47
2024-04-25T07:42:27.654Z,10.13
2024-04-25T07:44:57.829Z,12.10
2024-04-25T07:47:26.878Z,9.90
2024-04-25T07:49:56.271Z,10.30
2024-04-25T07:52:26.392Z,9.43
2024-04-25T07:54:58.209Z,10.57
2024-04-25T07:57:26.918Z,8.60
2024-04-25T07:59:56.239Z,9.93
2024-04-25T08:02:24.838Z,9.33
2024-04-25T08:04:55.751Z,8.73
2024-04-25T08:07:24.572Z,9.00
2024-04-25T08:09:54.664Z,8.97
2024-04-25T08:12:25.796Z,10.87
2024-04-25T08:14:54.543Z,9.87
2024-04-25T08:17:23.035Z,10.10
2024-04-25T08:19:53.437Z,10.00
2024-04-25T08:22:23.096Z,9.27
2024-04-25T08:24:52.525Z,9.43
2024-04-25T08:27:21.137Z,8.83
2024-04-25T08:29:51.968Z,9.07
2024-04-25T08:32:24.104Z,9.30
2024-04-25T08:34:54.600Z,8.80
2024-04-25T08:37:23.202Z,9.27
2024-04-25T08:39:51.735Z,9.90
2024-04-25T08:42:22.717Z,11.83
2024-04-25T08:44:53.417Z,11.33
2024-04-25T08:47:22.322Z,10.93
2024-04-25T08:49:52.499Z,10.27
2024-04-25T08:52:23.696Z,9.93
2024-04-25T08:54:54.230Z,9.90
2024-04-25T08:57:25.427Z,9.60
2024-04-25T08:59:55.984Z,8.43
2024-04-25T09:02:28.301Z,8.63
2024-04-25T09:04:59.024Z,9.53
2024-04-25T09:07:28.072Z,8.13
2024-04-25T09:09:57.836Z,8.20
2024-04-25T09:12:32.648Z,6.73
2024-04-25T09:15:03.698Z,7.33
2024-04-25T09:17:33.759Z,6.83
2024-04-25T09:20:03.980Z,7.73
2024-04-25T09:22:32.503Z,6.17
2024-04-25T09:25:01.134Z,7.03
2024-04-25T09:27:29.788Z,6.93
2024-04-25T09:29:59.644Z,6.53
2024-04-25T09:32:31.978Z,6.23
2024-04-25T09:35:04.057Z,4.97
2024-04-25T09:37:34.445Z,5.10
2024-04-25T09:40:06.172Z,5.07
2024-04-25T09:42:37.343Z,5.33
2024-04-25T09:45:08.393Z,4.17
2024-04-25T09:47:44.210Z,6.77
2024-04-25T09:50:18.865Z,3.70
2024-04-25T09:52:52.667Z,4.30
2024-04-25T09:55:24.339Z,4.40
2024-04-25T09:57:56.083Z,4.90
2024-04-25T10:00:25.639Z,5.43
2024-04-25T10:02:57.106Z,4.57
2024-04-25T10:05:25.846Z,5.67
2024-04-25T10:07:55.075Z,5.10
2024-04-25T10:10:24.214Z,6.97
2024-04-25T10:12:54.295Z,5.77
2024-04-25T10:15:29.859Z,5.70
2024-04-25T10:18:00.880Z,5.80
2024-04-25T10:20:29.926Z,4.87
2024-04-25T10:22:59.448Z,4.43
2024-04-25T10:25:28.341Z,4.43
2024-04-25T10:27:58.741Z,3.93
2024-04-25T10:30:27.373Z,4.17
2024-04-25T10:32:56.101Z,3.70
2024-04-25T10:35:27.424Z,4.33
2024-04-25T10:37:55.908Z,4.07
2024-04-25T10:40:24.385Z,3.97
2024-04-25T10:43:03.820Z,3.43
2024-04-25T10:45:37.094Z,4.00
2024-04-25T10:48:06.255Z,3.57
2024-04-25T10:50:37.494Z,3.50
2024-04-25T10:53:06.480Z,3.20
2024-04-25T10:55:35.882Z,2.90
2024-04-25T10:58:12.763Z,3.87
2024-04-25T11:00:44.894Z,2.67
2024-04-25T11:03:13.654Z,1.80
2024-04-25T11:05:45.363Z,1.80
2024-04-25T11:08:14.366Z,1.60
2024-04-25T11:10:43.730Z,1.60
2024-04-25T11:13:13.964Z,1.67
2024-04-25T11:15:43.526Z,1.87
2024-04-25T11:18:16.733Z,1.93
2024-04-25T11:20:54.728Z,3.80
2024-04-25T11:23:24.142Z,3.67
2024-04-25T11:25:55.413Z,4.07
2024-04-25T11:28:24.445Z,4.13
2024-04-25T11:30:53.024Z,5.47
2024-04-25T11:33:23.067Z,5.43
2024-04-25T11:35:54.145Z,5.67
2024-04-25T11:38:24.315Z,4.83
2024-04-25T11:40:52.982Z,6.13
2024-04-25T11:43:22.854Z,6.80
2024-04-25T11:45:51.521Z,6.20
2024-04-25T11:48:22.414Z,5.40
2024-04-25T11:50:53.131Z,5.73
2024-04-25T11:53:21.760Z,5.33
2024-04-25T11:55:50.320Z,5.37
2024-04-25T11:58:19.012Z,4.90
2024-04-25T12:00:48.855Z,5.10
2024-04-25T12:03:18.430Z,4.30
2024-04-25T12:05:47.596Z,4.43
2024-04-25T12:08:18.553Z,4.37
2024-04-25T12:10:51.015Z,4.80
2024-04-25T12:13:19.688Z,4.80
2024-04-25T12:15:48.161Z,4.40
2024-04-25T12:18:16.864Z,3.73
2024-04-25T12:20:45.400Z,3.87
2024-04-25T12:23:13.998Z,4.63
2024-04-25T12:25:47.056Z,3.60
2024-04-25T12:28:15.868Z,3.67
2024-04-25T12:30:44.955Z,3.07
2024-04-25T12:33:13.516Z,3.03
2024-04-25T12:35:42.024Z,3.20
2024-04-25T12:38:10.533Z,3.23
2024-04-25T12:40:39.038Z,3.33
2024-04-25T12:43:10.440Z,2.90
2024-04-25T12:45:40.485Z,3.10
2024-04-25T12:48:11.726Z,3.50
2024-04-25T12:50:40.529Z,3.73
2024-04-25T12:53:11.903Z,3.87
2024-04-25T12:55:41.344Z,3.73
2024-04-25T12:58:11.934Z,4.05
2024-04-25T13:00:42.185Z,3.47
2024-04-25T13:03:11.524Z,2.67
2024-04-25T13:05:40.139Z,2.97
2024-04-25T13:08:09.693Z,2.33
2024-04-25T13:10:38.449Z,2.70
2024-04-25T13:13:07.398Z,2.60
2024-04-25T13:15:37.991Z,3.13
2024-04-25T13:18:06.874Z,2.13
2024-04-25T13:20:35.722Z,3.93
2024-04-25T13:23:04.357Z,3.20
2024-04-25T13:25:36.499Z,3.40
2024-04-25T13:28:05.557Z,2.77
2024-04-25T13:30:34.160Z,2.60
2024-04-25T13:33:07.015Z,2.23
2024-04-25T13:35:35.628Z,3.17
2024-04-25T13:38:04.346Z,2.60
2024-04-25T13:40:33.076Z,2.17
2024-04-25T13:43:01.574Z,1.60
2024-04-25T13:45:30.175Z,1.37
2024-04-25T13:47:58.813Z,1.23
2024-04-25T13:50:29.478Z,1.20
2024-04-25T13:52:57.991Z,1.20
2024-04-25T13:55:27.071Z,0.90
2024-04-25T13:57:55.618Z,1.40
2024-04-25T14:00:24.195Z,1.10
2024-04-25T14:02:52.738Z,1.17
2024-04-25T14:05:21.314Z,1.30
2024-04-25T14:07:54.361Z,1.20
2024-04-25T14:10:22.923Z,1.47
2024-04-25T14:12:52.019Z,1.20
2024-04-25T14:15:20.515Z,1.70
2024-04-25T14:17:47.696Z,1.03
2024-04-25T14:20:16.506Z,1.40
2024-04-25T14:22:45.109Z,1.37
2024-04-25T14:25:32.046Z,1.97
2024-04-25T14:28:17.364Z,2.03
2024-04-25T14:30:45.957Z,1.70
2024-04-25T14:33:14.637Z,2.17
2024-04-25T14:35:44.382Z,1.87
2024-04-25T14:38:13.677Z,1.80
2024-04-25T14:40:44.457Z,1.70
2024-04-25T14:43:13.539Z,1.58
2024-04-25T14:45:42.244Z,1.45
2024-04-25T14:48:10.928Z,1.45
2024-04-25T14:50:39.574Z,1.33
2024-04-25T14:53:08.609Z,1.30
2024-04-25T14:55:37.220Z,1.42
2024-04-25T14:58:07.758Z,1.45
2024-04-25T15:00:36.345Z,1.80
2024-04-25T15:03:05.228Z,1.40
2024-04-25T15:05:34.019Z,1.50
2024-04-25T15:08:03.213Z,1.50
2024-04-25T15:10:33.305Z,1.77
2024-04-25T15:13:02.357Z,1.87
2024-04-25T15:15:33.692Z,1.80
2024-04-25T15:18:02.463Z,2.00
2024-04-25T15:20:31.166Z,2.33
2024-04-25T15:23:00.704Z,2.10
2024-04-25T15:25:29.532Z,1.93
2024-04-25T15:27:58.186Z,2.60
2024-04-25T15:30:27.212Z,2.20
2024-04-25T15:32:57.912Z,2.40
2024-04-25T15:35:26.639Z,2.00
2024-04-25T15:37:55.205Z,2.77
2024-04-25T15:40:23.758Z,2.43
2024-04-25T15:42:52.685Z,1.97
2024-04-25T15:45:21.375Z,2.43
2024-04-25T15:47:50.854Z,2.33
2024-04-25T15:50:22.037Z,3.43
2024-04-25T15:52:50.606Z,2.83
2024-04-25T15:55:19.428Z,3.00
2024-04-25T15:57:49.024Z,3.43
2024-04-25T16:00:17.973Z,2.83
2024-04-25T16:02:47.499Z,3.00
2024-04-25T16:05:16.263Z,3.17
2024-04-25T16:07:46.827Z,3.17
2024-04-25T16:10:15.538Z,3.00
2024-04-25T16:12:44.333Z,3.10
2024-04-25T16:15:13.025Z,3.40
2024-04-25T16:17:46.207Z,2.97
2024-04-25T16:20:15.144Z,3.80
2024-04-25T16:22:43.665Z,3.53
2024-04-25T16:25:14.434Z,3.00
2024-04-25T16:27:43.015Z,3.47
2024-04-25T16:30:12.376Z,3.50
2024-04-25T16:32:40.935Z,4.10
2024-04-25T16:35:10.066Z,4.00
2024-04-25T16:37:38.660Z,3.37
2024-04-25T16:40:09.450Z,3.60
2024-04-25T16:42:40.124Z,3.37
2024-04-25T16:45:09.050Z,3.53
2024-04-25T16:47:37.736Z,4.70
2024-04-25T16:50:07.148Z,3.70
2024-04-25T16:52:35.751Z,3.57
2024-04-25T16:55:04.483Z,2.90
2024-04-25T16:57:34.083Z,3.70
2024-04-25T17:00:09.292Z,3.57
2024-04-25T17:02:38.009Z,3.30
2024-04-25T17:05:07.152Z,3.20
2024-04-25T17:07:35.980Z,3.20
2024-04-25T17:10:06.026Z,3.37
2024-04-25T17:12:34.640Z,3.67
2024-04-25T17:15:03.146Z,3.50
2024-04-25T17:17:33.810Z,3.53
2024-04-25T17:20:02.304Z,3.90
2024-04-25T17:22:30.783Z,3.87
2024-04-25T17:24:59.566Z,3.10
2024-04-25T17:27:28.135Z,2.73
2024-04-25T17:29:56.738Z,3.70
2024-04-25T17:32:25.475Z,3.40
2024-04-25T17:34:58.151Z,3.50
2024-04-25T17:37:26.710Z,4.07
2024-04-25T17:39:55.349Z,5.40
2024-04-25T17:42:25.640Z,6.10
2024-04-25T17:44:55.736Z,10.97
2024-04-25T17:47:25.186Z,13.70
2024-04-25T17:49:56.276Z,17.70
2024-04-25T17:52:24.748Z,16.23
2024-04-25T17:54:53.348Z,17.93
2024-04-25T17:57:21.849Z,13.40
2024-04-25T17:59:50.379Z,13.03
2024-04-25T18:02:18.942Z,10.73
2024-04-25T18:04:47.542Z,9.40
2024-04-25T18:07:19.946Z,8.30
2024-04-25T18:09:48.751Z,5.30
2024-04-25T18:12:17.323Z,5.20
2024-04-25T18:14:45.909Z,4.33
2024-04-25T18:17:14.493Z,3.77
2024-04-25T18:19:42.998Z,5.03
2024-04-25T18:22:13.795Z,4.23
2024-04-25T18:24:45.858Z,4.43
2024-04-25T18:27:14.386Z,4.40
2024-04-25T18:29:43.049Z,5.33
2024-04-25T18:32:11.691Z,4.73
2024-04-25T18:34:44.018Z,4.40
2024-04-25T18:37:13.117Z,4.07
2024-04-25T18:39:41.652Z,4.23
2024-04-25T18:42:10.354Z,4.57
2024-04-25T18:44:38.946Z,2.83
2024-04-25T18:47:07.647Z,2.93
2024-04-25T18:49:36.180Z,3.20
2024-04-25T18:52:05.209Z,2.57
2024-04-25T18:54:36.066Z,2.93
2024-04-25T18:57:04.814Z,2.40
2024-04-25T18:59:35.856Z,2.10
2024-04-25T19:02:05.069Z,2.63
2024-04-25T19:04:33.671Z,2.10
2024-04-25T19:07:04.006Z,1.80
2024-04-25T19:09:32.725Z,1.60
2024-04-25T19:12:01.486Z,1.47
2024-04-25T19:14:30.196Z,1.60
2024-04-25T19:17:00.820Z,1.40
2024-04-25T19:19:29.367Z,1.70
2024-04-25T19:21:57.922Z,1.50
2024-04-25T19:24:26.513Z,1.30
2024-04-25T19:26:55.372Z,1.53
2024-04-25T19:29:24.491Z,1.20
2024-04-25T19:31:53.618Z,1.80
2024-04-25T19:34:26.499Z,1.70
2024-04-25T19:36:55.756Z,1.90
2024-04-25T19:39:24.978Z,1.70
2024-04-25T19:41:54.872Z,1.80
2024-04-25T19:44:23.907Z,1.70
2024-04-25T19:46:53.145Z,2.00
2024-04-25T19:49:23.934Z,2.20
2024-04-25T19:51:52.821Z,2.70
2024-04-25T19:54:21.491Z,2.10
2024-04-25T19:56:50.315Z,1.80
2024-04-25T19:59:19.270Z,2.03
2024-04-25T20:01:50.557Z,1.37
2024-04-25T20:04:21.348Z,2.57
2024-04-25T20:06:52.767Z,1.80
2024-04-25T20:09:22.422Z,2.20
2024-04-25T20:11:51.189Z,1.80
2024-04-25T20:14:19.939Z,1.40
2024-04-25T20:16:48.496Z,2.13
2024-04-25T20:19:33.680Z,1.93
2024-04-25T20:22:04.304Z,2.97
2024-04-25T20:24:32.941Z,1.70
2024-04-25T20:27:02.400Z,2.00
2024-04-25T20:29:32.400Z,1.80
2024-04-25T20:32:01.127Z,2.30
2024-04-25T20:34:29.711Z,1.80
2024-04-25T20:36:58.304Z,1.87
2024-04-25T20:39:29.016Z,1.87
2024-04-25T20:41:57.678Z,1.80
2024-04-25T20:44:26.254Z,1.60
2024-04-25T20:46:55.500Z,2.10
2024-04-25T20:49:24.920Z,2.00
2024-04-25T20:51:53.526Z,1.73
2024-04-25T20:54:22.138Z,1.53
2024-04-25T20:56:52.787Z,2.00
2024-04-25T20:59:21.493Z,1.77
2024-04-25T21:01:50.076Z,1.80
2024-04-25T21:04:18.711Z,1.67
2024-04-25T21:06:48.533Z,1.90
2024-04-25T21:09:17.891Z,1.80
2024-04-25T21:11:46.795Z,2.20
2024-04-25T21:14:17.463Z,2.27
2024-04-25T21:16:46.023Z,1.77
2024-04-25T21:19:15.112Z,1.80
2024-04-25T21:21:47.261Z,1.80
2024-04-25T21:24:16.293Z,2.20
2024-04-25T21:26:49.573Z,2.27
2024-04-25T21:29:20.470Z,2.20
2024-04-25T21:31:52.801Z,2.30
2024-04-25T21:34:21.572Z,3.13
2024-04-25T21:36:50.302Z,2.60
2024-04-25T21:39:19.718Z,2.80
2024-04-25T21:41:48.981Z,2.87
2024-04-25T21:44:19.691Z,3.03
2024-04-25T21:46:48.336Z,3.07
2024-04-25T21:49:17.727Z,3.50
2024-04-25T21:51:47.972Z,3.20
2024-04-25T21:54:16.848Z,3.43
2024-04-25T21:56:46.141Z,2.97
2024-04-25T21:59:15.407Z,3.40
2024-04-25T22:01:56.739Z,2.97
2024-04-25T22:04:26.469Z,2.93
2024-04-25T22:06:56.586Z,2.97
2024-04-25T22:09:25.234Z,3.13
2024-04-25T22:11:53.756Z,3.23
2024-04-25T22:14:22.583Z,3.17
2024-04-25T22:16:51.650Z,2.70
2024-04-25T22:19:22.490Z,2.70
2024-04-25T22:21:51.542Z,2.83
2024-04-25T22:24:23.278Z,2.73
2024-04-25T22:26:53.103Z,3.00
2024-04-25T22:29:21.891Z,2.63
2024-04-25T22:31:50.537Z,2.73
2024-04-25T22:34:21.231Z,2.87
2024-04-25T22:36:49.818Z,2.80
2024-04-25T22:39:18.482Z,2.80
2024-04-25T22:41:46.999Z,2.70
2024-04-25T22:44:16.600Z,2.40
2024-04-25T22:46:45.159Z,2.87
2024-04-25T22:49:13.769Z,2.80
2024-04-25T22:51:44.458Z,2.60
2024-04-25T22:54:13.058Z,2.90
2024-04-25T22:56:42.150Z,4.27
2024-04-25T22:59:10.668Z,4.40
2024-04-25T23:01:39.773Z,4.00
2024-04-25T23:04:08.310Z,3.20
2024-04-25T23:06:37.012Z,3.63
2024-04-25T23:09:07.589Z,3.43
2024-04-25T23:11:36.171Z,3.13
2024-04-25T23:14:04.892Z,3.10
2024-04-25T23:16:33.366Z,2.93
2024-04-25T23:19:02.296Z,2.97
2024-04-25T23:21:31.482Z,3.00
2024-04-25T23:24:01.396Z,3.00
2024-04-25T23:26:36.790Z,3.13
2024-04-25T23:29:05.343Z,3.70
2024-04-25T23:31:33.918Z,3.93
2024-04-25T23:34:02.567Z,3.43
2024-04-25T23:36:31.080Z,4.10
2024-04-25T23:39:00.067Z,3.37
2024-04-25T23:41:28.539Z,3.33
2024-04-25T23:43:59.102Z,3.27
2024-04-25T23:46:27.651Z,3.30
2024-04-25T23:48:56.556Z,3.37
2024-04-25T23:51:26.040Z,3.47
2024-04-25T23:53:54.951Z,3.80
2024-04-25T23:56:23.554Z,3.80
2024-04-25T23:58:52.056Z,3.70
